createdAt,value
2023-01-06T00:01:22.243Z,2.36
2023-01-06T00:03:51.986Z,2.40
2023-01-06T00:06:27.671Z,2.39
2023-01-06T00:09:01.282Z,2.49
2023-01-06T00:11:29.048Z,2.44
2023-01-06T00:13:57.276Z,2.34
2023-01-06T00:16:25.356Z,2.37
2023-01-06T00:18:58.556Z,2.39
2023-01-06T00:21:26.604Z,2.28
2023-01-06T00:23:55.175Z,2.18
2023-01-06T00:26:23.375Z,2.08
2023-01-06T00:28:55.793Z,2.19
2023-01-06T00:31:24.084Z,2.29
2023-01-06T00:33:52.528Z,2.23
2023-01-06T00:36:21.787Z,2.25
2023-01-06T00:38:51.334Z,2.19
2023-01-06T00:41:38.928Z,2.28
2023-01-06T00:44:08.088Z,2.39
2023-01-06T00:46:36.140Z,2.24
2023-01-06T00:49:07.503Z,2.32
2023-01-06T00:51:39.434Z,2.30
2023-01-06T00:54:12.583Z,2.23
2023-01-06T00:56:42.663Z,2.28
2023-01-06T00:59:12.515Z,2.23
2023-01-06T01:01:41.062Z,2.21
2023-01-06T01:04:10.363Z,2.17
2023-01-06T01:06:38.987Z,2.24
2023-01-06T01:09:07.844Z,2.40
2023-01-06T01:11:54.840Z,2.16
2023-01-06T01:14:22.619Z,2.31
2023-01-06T01:16:50.674Z,2.11
2023-01-06T01:19:19.584Z,2.32
2023-01-06T01:21:47.949Z,2.22
2023-01-06T01:24:15.979Z,2.21
2023-01-06T01:26:44.583Z,2.04
2023-01-06T01:29:16.591Z,2.27
2023-01-06T01:31:45.098Z,2.20
2023-01-06T01:34:15.431Z,2.02
2023-01-06T01:36:45.620Z,2.22
2023-01-06T01:39:15.627Z,2.07
2023-01-06T01:41:44.001Z,1.93
2023-01-06T01:44:54.305Z,2.04
2023-01-06T01:47:22.331Z,2.01
2023-01-06T01:49:54.359Z,1.95
2023-01-06T01:52:23.913Z,1.86
2023-01-06T01:54:55.179Z,1.86
2023-01-06T01:57:30.191Z,1.94
2023-01-06T01:59:59.198Z,1.96
2023-01-06T02:02:30.463Z,2.03
2023-01-06T02:04:59.710Z,2.04
2023-01-06T02:07:28.176Z,1.99
2023-01-06T02:10:03.937Z,2.07
2023-01-06T02:12:34.154Z,1.81
2023-01-06T02:15:02.931Z,1.78
2023-01-06T02:17:42.418Z,2.01
2023-01-06T02:20:41.316Z,2.04
2023-01-06T02:23:24.152Z,1.97
2023-01-06T02:26:23.205Z,1.71
2023-01-06T02:29:21.779Z,1.76
2023-01-06T02:32:15.337Z,1.70
2023-01-06T02:34:52.321Z,1.55
2023-01-06T02:37:24.145Z,1.70
2023-01-06T02:40:14.533Z,1.78
2023-01-06T02:43:00.729Z,1.63
2023-01-06T02:45:44.629Z,1.57
2023-01-06T02:48:30.718Z,1.77
2023-01-06T02:51:18.349Z,1.64
2023-01-06T02:54:06.712Z,1.55
2023-01-06T02:56:39.965Z,1.60
2023-01-06T02:59:19.684Z,1.59
2023-01-06T03:01:50.169Z,1.55
2023-01-06T03:04:24.857Z,1.72
2023-01-06T03:06:58.477Z,1.68
2023-01-06T03:09:37.436Z,1.59
2023-01-06T03:12:20.038Z,1.49
2023-01-06T03:14:52.925Z,1.56
2023-01-06T03:17:21.189Z,1.55
2023-01-06T03:19:48.893Z,1.51
2023-01-06T03:22:18.419Z,1.59
2023-01-06T03:24:46.649Z,1.66
2023-01-06T03:27:19.996Z,1.72
2023-01-06T03:29:48.426Z,1.61
2023-01-06T03:32:25.029Z,1.57
2023-01-06T03:34:55.741Z,1.51
2023-01-06T03:37:51.824Z,1.72
2023-01-06T03:40:40.995Z,1.78
2023-01-06T03:43:35.810Z,1.60
2023-01-06T03:46:29.403Z,1.81
2023-01-06T03:49:07.513Z,1.79
2023-01-06T03:52:13.524Z,1.71
2023-01-06T03:54:48.055Z,1.70
2023-01-06T03:57:27.647Z,1.67
2023-01-06T04:00:14.770Z,1.67
2023-01-06T04:02:48.158Z,1.54
2023-01-06T04:05:23.354Z,1.57
2023-01-06T04:07:52.384Z,1.83
2023-01-06T04:10:23.537Z,1.74
2023-01-06T04:12:55.143Z,1.64
2023-01-06T04:15:31.107Z,1.59
2023-01-06T04:18:00.397Z,1.58
2023-01-06T04:20:31.804Z,1.56
2023-01-06T04:23:16.568Z,1.61
2023-01-06T04:25:45.519Z,1.62
2023-01-06T04:28:31.293Z,1.57
2023-01-06T04:31:01.366Z,1.59
2023-01-06T04:33:30.527Z,1.72
2023-01-06T04:36:02.265Z,1.90
2023-01-06T04:38:30.223Z,1.66
2023-01-06T04:41:00.514Z,1.57
2023-01-06T04:43:28.226Z,1.65
2023-01-06T04:45:59.399Z,1.70
2023-01-06T04:48:27.200Z,1.74
2023-01-06T04:51:07.082Z,1.63
2023-01-06T04:53:40.020Z,1.62
2023-01-06T04:56:11.667Z,1.53
2023-01-06T04:58:39.732Z,1.75
2023-01-06T05:01:10.723Z,1.76
2023-01-06T05:03:39.396Z,1.79
2023-01-06T05:06:10.681Z,1.88
2023-01-06T05:08:40.292Z,1.74
2023-01-06T05:11:11.744Z,1.53
2023-01-06T05:13:40.444Z,1.55
2023-01-06T05:16:10.728Z,1.46
2023-01-06T05:18:38.746Z,1.46
2023-01-06T05:21:07.297Z,1.44
2023-01-06T05:23:36.276Z,1.39
2023-01-06T05:26:04.793Z,1.53
2023-01-06T05:28:32.830Z,1.68
2023-01-06T05:31:02.881Z,1.86
2023-01-06T05:33:32.458Z,1.64
2023-01-06T05:36:02.146Z,1.71
2023-01-06T05:38:30.025Z,1.63
2023-01-06T05:40:58.055Z,1.57
2023-01-06T05:43:27.136Z,1.58
2023-01-06T05:45:56.525Z,1.64
2023-01-06T05:48:28.659Z,1.59
2023-01-06T05:51:07.947Z,1.41
2023-01-06T05:53:38.011Z,1.41
2023-01-06T05:56:08.752Z,1.45
2023-01-06T05:58:36.883Z,1.62
2023-01-06T06:01:05.469Z,1.60
2023-01-06T06:03:34.027Z,1.67
2023-01-06T06:06:06.418Z,1.55
2023-01-06T06:08:34.431Z,1.28
2023-01-06T06:11:07.421Z,1.34
2023-01-06T06:13:35.108Z,1.05
2023-01-06T06:16:10.354Z,1.00
2023-01-06T06:18:44.781Z,0.98
2023-01-06T06:21:15.301Z,1.00
2023-01-06T06:23:43.758Z,0.92
2023-01-06T06:26:12.526Z,0.97
2023-01-06T06:28:40.821Z,0.89
2023-01-06T06:31:15.356Z,0.93
2023-01-06T06:33:43.572Z,0.85
2023-01-06T06:36:12.283Z,0.91
2023-01-06T06:38:40.077Z,0.97
2023-01-06T06:41:08.197Z,0.81
2023-01-06T06:43:35.985Z,0.80
2023-01-06T06:46:04.295Z,0.73
2023-01-06T06:48:32.210Z,0.85
2023-01-06T06:51:02.797Z,0.85
2023-01-06T06:53:30.508Z,0.68
2023-01-06T06:55:58.805Z,0.74
2023-01-06T06:58:26.869Z,0.77
2023-01-06T07:00:55.027Z,0.71
2023-01-06T07:03:23.155Z,0.59
2023-01-06T07:05:52.844Z,0.76
2023-01-06T07:08:20.644Z,0.75
2023-01-06T07:10:48.648Z,0.62
2023-01-06T07:13:16.376Z,0.70
2023-01-06T07:15:44.588Z,0.64
2023-01-06T07:18:12.637Z,0.72
2023-01-06T07:20:40.637Z,0.73
2023-01-06T07:23:08.408Z,0.64
2023-01-06T07:25:36.472Z,0.68
2023-01-06T07:28:08.868Z,0.82
2023-01-06T07:30:37.640Z,0.80
2023-01-06T07:33:05.569Z,0.84
2023-01-06T07:35:33.578Z,0.96
2023-01-06T07:38:05.974Z,0.99
2023-01-06T07:40:34.659Z,1.00
2023-01-06T07:43:07.196Z,1.14
2023-01-06T07:45:35.601Z,1.26
2023-01-06T07:48:03.778Z,1.13
2023-01-06T07:50:32.728Z,1.14
2023-01-06T07:53:02.387Z,1.32
2023-01-06T07:55:30.554Z,1.17
2023-01-06T07:57:58.921Z,1.45
2023-01-06T08:00:27.009Z,1.24
2023-01-06T08:02:55.367Z,1.22
2023-01-06T08:05:23.913Z,1.21
2023-01-06T08:07:51.740Z,1.51
2023-01-06T08:10:19.796Z,1.49
2023-01-06T08:12:47.557Z,1.84
2023-01-06T08:15:15.788Z,1.88
2023-01-06T08:17:43.557Z,1.75
2023-01-06T08:20:11.647Z,1.51
2023-01-06T08:22:39.376Z,1.61
2023-01-06T08:25:07.912Z,1.51
2023-01-06T08:27:35.967Z,1.56
2023-01-06T08:30:04.456Z,1.46
2023-01-06T08:32:32.250Z,1.56
2023-01-06T08:35:00.176Z,1.64
2023-01-06T08:37:29.180Z,1.60
2023-01-06T08:39:57.820Z,1.55
2023-01-06T08:42:26.717Z,1.70
2023-01-06T08:44:54.671Z,1.64
2023-01-06T08:47:22.468Z,1.91
2023-01-06T08:49:50.493Z,1.73
2023-01-06T08:52:18.229Z,1.75
2023-01-06T08:54:46.317Z,1.69
2023-01-06T08:57:16.012Z,1.73
2023-01-06T08:59:44.134Z,1.80
2023-01-06T09:02:12.027Z,1.97
2023-01-06T09:04:40.338Z,1.90
2023-01-06T09:07:08.244Z,1.84
2023-01-06T09:09:36.374Z,2.15
2023-01-06T09:12:04.328Z,2.10
2023-01-06T09:14:32.864Z,2.28
2023-01-06T09:17:00.737Z,2.16
2023-01-06T09:19:28.686Z,2.18
2023-01-06T09:21:56.388Z,2.06
2023-01-06T09:24:24.448Z,2.19
2023-01-06T09:26:52.181Z,2.28
2023-01-06T09:29:21.450Z,2.08
2023-01-06T09:31:49.135Z,2.31
2023-01-06T09:34:17.077Z,2.24
2023-01-06T09:36:45.076Z,2.36
2023-01-06T09:39:13.084Z,2.50
2023-01-06T09:41:46.942Z,2.32
2023-01-06T09:44:29.705Z,2.18
2023-01-06T09:46:59.318Z,2.36
2023-01-06T09:49:42.507Z,2.38
2023-01-06T09:52:26.003Z,2.29
2023-01-06T09:55:18.314Z,2.21
2023-01-06T09:57:52.284Z,2.34
2023-01-06T10:00:41.297Z,2.41
2023-01-06T10:03:18.099Z,2.33
2023-01-06T10:05:52.121Z,2.27
2023-01-06T10:08:26.086Z,2.16
2023-01-06T10:11:14.917Z,2.31
2023-01-06T10:14:07.529Z,2.42
2023-01-06T10:17:00.241Z,2.45
2023-01-06T10:19:36.406Z,2.24
2023-01-06T10:22:18.211Z,2.27
2023-01-06T10:25:12.687Z,2.19
2023-01-06T10:27:47.354Z,2.31
2023-01-06T10:30:18.698Z,2.48
2023-01-06T10:32:49.468Z,2.35
2023-01-06T10:35:21.119Z,2.20
2023-01-06T10:37:52.754Z,2.33
2023-01-06T10:40:30.484Z,2.25
2023-01-06T10:43:11.555Z,2.20
2023-01-06T10:45:47.728Z,2.17
2023-01-06T10:48:26.700Z,2.22
2023-01-06T10:50:57.145Z,2.33
2023-01-06T10:53:26.482Z,2.30
2023-01-06T10:55:58.850Z,2.40
2023-01-06T10:58:35.963Z,2.40
2023-01-06T11:01:23.254Z,2.38
2023-01-06T11:04:12.220Z,2.59
2023-01-06T11:07:02.066Z,2.53
2023-01-06T11:09:48.322Z,2.41
2023-01-06T11:12:23.714Z,2.42
2023-01-06T11:15:02.527Z,2.44
2023-01-06T11:17:31.476Z,2.36
2023-01-06T11:20:25.755Z,2.42
2023-01-06T11:22:53.678Z,2.54
2023-01-06T11:25:21.773Z,2.66
2023-01-06T11:28:19.332Z,2.44
2023-01-06T11:30:52.882Z,2.59
2023-01-06T11:33:24.750Z,2.45
2023-01-06T11:35:54.238Z,2.38
2023-01-06T11:38:23.325Z,2.41
2023-01-06T11:40:53.974Z,2.43
2023-01-06T11:43:32.685Z,2.43
2023-01-06T11:46:04.385Z,2.59
2023-01-06T11:48:43.175Z,2.48
2023-01-06T11:51:11.896Z,2.60
2023-01-06T11:53:54.418Z,2.46
2023-01-06T11:56:22.896Z,2.75
2023-01-06T11:59:07.780Z,2.61
2023-01-06T12:01:59.505Z,2.39
2023-01-06T12:04:46.568Z,2.45
2023-01-06T12:07:20.669Z,2.43
2023-01-06T12:09:49.937Z,2.52
2023-01-06T12:12:23.068Z,2.59
2023-01-06T12:14:50.803Z,2.42
2023-01-06T12:17:57.274Z,2.53
2023-01-06T12:20:32.750Z,2.63
2023-01-06T12:23:12.911Z,2.66
2023-01-06T12:25:49.073Z,2.57
2023-01-06T12:28:30.013Z,2.56
2023-01-06T12:31:27.767Z,2.68
2023-01-06T12:33:58.561Z,2.62
2023-01-06T12:36:47.628Z,2.63
2023-01-06T12:39:34.028Z,2.44
2023-01-06T12:42:10.723Z,2.31
2023-01-06T12:45:01.718Z,2.50
2023-01-06T12:47:48.320Z,2.45
2023-01-06T12:50:18.972Z,2.42
2023-01-06T12:53:20.439Z,2.36
2023-01-06T12:56:08.180Z,2.52
2023-01-06T12:58:54.862Z,2.52
2023-01-06T13:01:37.869Z,2.42
2023-01-06T13:04:39.734Z,2.23
2023-01-06T13:07:44.532Z,2.36
2023-01-06T13:10:40.430Z,2.44
2023-01-06T13:13:38.734Z,2.47
2023-01-06T13:16:20.634Z,2.40
2023-01-06T13:19:02.060Z,2.23
2023-01-06T13:21:31.802Z,2.10
2023-01-06T13:23:59.710Z,2.18
2023-01-06T13:26:45.823Z,2.44
2023-01-06T13:29:32.237Z,2.38
2023-01-06T13:32:36.087Z,2.40
2023-01-06T13:35:12.674Z,2.17
2023-01-06T13:37:41.906Z,2.21
2023-01-06T13:40:21.216Z,2.06
2023-01-06T13:42:58.171Z,2.07
2023-01-06T13:45:29.528Z,2.11
2023-01-06T13:47:59.406Z,1.92
2023-01-06T13:50:28.696Z,1.85
2023-01-06T13:52:56.595Z,1.99
2023-01-06T13:55:35.393Z,1.86
2023-01-06T13:58:25.740Z,2.05
2023-01-06T14:01:13.898Z,1.89
2023-01-06T14:03:43.097Z,2.05
2023-01-06T14:06:13.011Z,2.05
2023-01-06T14:08:51.771Z,1.98
2023-01-06T14:11:25.378Z,1.86
2023-01-06T14:13:56.454Z,1.91
2023-01-06T14:16:41.106Z,1.79
2023-01-06T14:19:18.106Z,1.73
2023-01-06T14:21:50.639Z,1.89
2023-01-06T14:24:35.933Z,1.96
2023-01-06T14:27:08.357Z,2.07
2023-01-06T14:29:46.410Z,2.11
2023-01-06T14:32:17.598Z,1.99
2023-01-06T14:34:52.528Z,1.99
2023-01-06T14:37:28.680Z,1.83
2023-01-06T14:39:59.272Z,1.64
2023-01-06T14:42:36.929Z,1.73
2023-01-06T14:45:23.787Z,1.92
2023-01-06T14:47:59.832Z,1.92
2023-01-06T14:50:42.038Z,1.95
2023-01-06T14:53:25.078Z,1.73
2023-01-06T14:55:53.328Z,1.65
2023-01-06T14:58:39.194Z,1.83
2023-01-06T15:01:20.347Z,1.67
2023-01-06T15:03:56.685Z,1.67
2023-01-06T15:06:26.715Z,1.75
2023-01-06T15:08:57.690Z,1.88
2023-01-06T15:11:33.541Z,1.76
2023-01-06T15:14:01.569Z,1.84
2023-01-06T15:16:39.321Z,1.66
2023-01-06T15:19:15.174Z,1.62
2023-01-06T15:21:45.772Z,1.75
2023-01-06T15:24:32.671Z,1.89
2023-01-06T15:27:12.635Z,1.90
2023-01-06T15:29:58.510Z,1.92
2023-01-06T15:32:27.760Z,1.68
2023-01-06T15:34:58.191Z,1.70
2023-01-06T15:37:30.833Z,1.65
2023-01-06T15:39:58.944Z,1.78
2023-01-06T15:42:27.579Z,1.63
2023-01-06T15:45:00.514Z,1.69
2023-01-06T15:47:39.813Z,1.45
2023-01-06T15:50:16.015Z,1.47
2023-01-06T15:53:04.150Z,1.62
2023-01-06T15:55:43.084Z,1.72
2023-01-06T15:58:30.603Z,1.65
2023-01-06T16:01:11.424Z,1.58
2023-01-06T16:03:39.762Z,1.61
2023-01-06T16:06:13.627Z,1.62
2023-01-06T16:08:42.906Z,1.54
2023-01-06T16:11:17.197Z,1.49
2023-01-06T16:13:58.735Z,1.56
2023-01-06T16:16:31.563Z,1.58
2023-01-06T16:19:07.461Z,1.45
2023-01-06T16:21:35.704Z,1.36
2023-01-06T16:24:17.640Z,1.31
2023-01-06T16:26:58.553Z,1.49
2023-01-06T16:29:29.596Z,1.29
2023-01-06T16:32:01.223Z,1.45
2023-01-06T16:34:32.333Z,1.44
2023-01-06T16:37:01.202Z,1.44
2023-01-06T16:39:29.216Z,1.47
2023-01-06T16:42:00.341Z,1.51
2023-01-06T16:44:34.369Z,1.47
2023-01-06T16:47:02.373Z,1.46
2023-01-06T16:49:30.899Z,1.24
2023-01-06T16:51:59.364Z,1.48
2023-01-06T16:54:27.355Z,1.42
2023-01-06T16:56:55.010Z,1.25
2023-01-06T16:59:23.735Z,1.25
2023-01-06T17:01:51.698Z,1.27
2023-01-06T17:04:19.849Z,1.25
2023-01-06T17:06:47.695Z,1.26
2023-01-06T17:09:23.377Z,1.29
2023-01-06T17:11:52.897Z,1.11
2023-01-06T17:14:23.029Z,1.19
2023-01-06T17:16:51.257Z,1.05
2023-01-06T17:19:40.114Z,1.20
2023-01-06T17:22:30.991Z,1.23
2023-01-06T17:25:08.977Z,1.17
2023-01-06T17:27:36.742Z,1.11
2023-01-06T17:30:15.842Z,1.04
2023-01-06T17:32:44.914Z,1.15
2023-01-06T17:35:29.387Z,1.05
2023-01-06T17:38:02.581Z,0.99
2023-01-06T17:40:38.628Z,0.99
2023-01-06T17:43:23.872Z,0.97
2023-01-06T17:45:52.064Z,1.00
2023-01-06T17:48:20.316Z,0.84
2023-01-06T17:50:54.712Z,0.87
2023-01-06T17:54:01.744Z,0.80
2023-01-06T17:56:29.809Z,0.74
2023-01-06T17:59:05.167Z,0.92
2023-01-06T18:01:35.272Z,0.76
2023-01-06T18:04:06.623Z,0.84
2023-01-06T18:06:38.059Z,0.89
2023-01-06T18:09:05.787Z,0.71
2023-01-06T18:11:42.261Z,0.74
2023-01-06T18:14:41.952Z,0.72
2023-01-06T18:17:25.849Z,0.70
2023-01-06T18:19:53.816Z,0.77
2023-01-06T18:22:25.591Z,0.73
2023-01-06T18:25:01.547Z,0.79
2023-01-06T18:27:34.736Z,0.68
2023-01-06T18:30:24.148Z,0.62
2023-01-06T18:32:52.654Z,0.68
2023-01-06T18:35:27.779Z,0.70
2023-01-06T18:38:00.846Z,0.65
2023-01-06T18:40:28.637Z,0.73
2023-01-06T18:42:56.923Z,0.63
2023-01-06T18:45:28.584Z,0.59
2023-01-06T18:48:16.368Z,0.55
2023-01-06T18:50:46.160Z,0.55
2023-01-06T18:53:14.109Z,0.75
2023-01-06T18:55:47.158Z,0.54
2023-01-06T18:58:17.023Z,0.68
2023-01-06T19:00:55.708Z,0.66
2023-01-06T19:03:31.149Z,0.67
2023-01-06T19:06:05.010Z,0.65
2023-01-06T19:08:35.128Z,0.63
2023-01-06T19:11:11.747Z,0.67
2023-01-06T19:13:39.941Z,0.62
2023-01-06T19:16:36.831Z,0.76
2023-01-06T19:19:13.754Z,0.74
2023-01-06T19:21:41.715Z,0.61
2023-01-06T19:24:38.070Z,0.72
2023-01-06T19:27:19.877Z,0.77
2023-01-06T19:29:47.945Z,0.67
2023-01-06T19:32:15.892Z,0.77
2023-01-06T19:34:43.870Z,0.65
2023-01-06T19:37:20.841Z,0.91
2023-01-06T19:39:54.233Z,0.61
2023-01-06T19:42:27.644Z,0.79
2023-01-06T19:44:58.906Z,0.90
2023-01-06T19:47:31.506Z,0.84
2023-01-06T19:50:16.066Z,0.93
2023-01-06T19:52:43.850Z,0.73
2023-01-06T19:55:17.190Z,0.82
2023-01-06T19:57:51.051Z,0.80
2023-01-06T20:00:25.264Z,0.88
2023-01-06T20:02:54.180Z,0.79
2023-01-06T20:05:22.363Z,0.73
2023-01-06T20:07:50.145Z,0.88
2023-01-06T20:10:18.225Z,0.76
2023-01-06T20:12:46.341Z,0.82
2023-01-06T20:15:14.823Z,0.89
2023-01-06T20:17:42.793Z,0.90
2023-01-06T20:20:11.237Z,0.78
2023-01-06T20:22:39.097Z,0.74
2023-01-06T20:25:07.678Z,0.71
2023-01-06T20:27:35.942Z,0.80
2023-01-06T20:30:05.078Z,0.86
2023-01-06T20:32:32.750Z,0.91
2023-01-06T20:35:00.742Z,1.09
2023-01-06T20:37:28.495Z,0.84
2023-01-06T20:39:56.486Z,0.78
2023-01-06T20:42:24.294Z,0.81
2023-01-06T20:44:52.342Z,0.98
2023-01-06T20:47:20.056Z,0.94
2023-01-06T20:49:48.605Z,0.91
2023-01-06T20:52:16.351Z,0.96
2023-01-06T20:54:44.390Z,0.98
2023-01-06T20:57:12.200Z,0.92
2023-01-06T20:59:40.156Z,0.94
2023-01-06T21:02:07.935Z,0.99
2023-01-06T21:04:36.472Z,0.91
2023-01-06T21:07:04.211Z,0.82
2023-01-06T21:09:32.206Z,0.77
2023-01-06T21:11:59.889Z,0.83
2023-01-06T21:14:28.616Z,1.00
2023-01-06T21:16:56.408Z,1.05
2023-01-06T21:19:24.410Z,0.86
2023-01-06T21:21:52.118Z,1.03
2023-01-06T21:24:20.104Z,1.08
2023-01-06T21:26:47.827Z,1.14
2023-01-06T21:29:15.814Z,1.07
2023-01-06T21:31:43.986Z,0.92
2023-01-06T21:34:11.980Z,1.03
2023-01-06T21:36:39.732Z,1.07
2023-01-06T21:39:09.034Z,1.02
2023-01-06T21:41:55.689Z,0.98
2023-01-06T21:44:24.246Z,0.98
2023-01-06T21:46:51.903Z,1.03
2023-01-06T21:49:19.954Z,0.99
2023-01-06T21:51:48.901Z,0.98
2023-01-06T21:54:16.894Z,1.15
2023-01-06T21:56:44.701Z,1.30
2023-01-06T21:59:12.830Z,1.26
2023-01-06T22:01:40.641Z,1.25
2023-01-06T22:04:08.875Z,1.26
2023-01-06T22:06:39.098Z,1.44
2023-01-06T22:09:09.277Z,1.38
2023-01-06T22:11:40.111Z,1.14
2023-01-06T22:14:10.175Z,1.15
2023-01-06T22:16:40.090Z,1.24
2023-01-06T22:19:11.181Z,1.24
2023-01-06T22:21:40.393Z,1.33
2023-01-06T22:24:10.864Z,1.40
2023-01-06T22:26:38.714Z,1.37
2023-01-06T22:29:08.260Z,1.13
2023-01-06T22:31:36.921Z,1.12
2023-01-06T22:34:06.276Z,1.10
2023-01-06T22:36:34.085Z,1.27
2023-01-06T22:39:02.043Z,1.33
2023-01-06T22:41:30.006Z,1.29
2023-01-06T22:43:57.986Z,1.42
2023-01-06T22:46:27.433Z,1.37
2023-01-06T22:48:55.432Z,1.39
2023-01-06T22:51:23.353Z,1.21
2023-01-06T22:53:52.278Z,1.19
2023-01-06T22:56:19.982Z,1.16
2023-01-06T22:58:48.091Z,1.35
2023-01-06T23:01:15.845Z,1.34
2023-01-06T23:03:44.178Z,1.27
2023-01-06T23:06:13.701Z,1.28
2023-01-06T23:08:58.486Z,1.47
2023-01-06T23:11:28.733Z,1.58
2023-01-06T23:13:58.931Z,1.32
2023-01-06T23:16:29.013Z,1.32
2023-01-06T23:18:57.329Z,1.57
2023-01-06T23:21:27.385Z,1.59
2023-01-06T23:23:55.433Z,1.61
2023-01-06T23:26:26.469Z,1.62
2023-01-06T23:28:55.736Z,1.48
2023-01-06T23:31:29.432Z,1.46
2023-01-06T23:34:02.090Z,1.46
2023-01-06T23:36:33.400Z,1.41
2023-01-06T23:39:03.207Z,1.66
2023-01-06T23:41:33.717Z,1.64
2023-01-06T23:44:02.498Z,1.54
2023-01-06T23:46:36.774Z,1.48
2023-01-06T23:49:06.174Z,1.47
2023-01-06T23:51:34.327Z,1.58
2023-01-06T23:54:04.706Z,1.44
2023-01-06T23:56:34.007Z,1.70
2023-01-06T23:59:04.080Z,1.61
